createdAt,value
2023-02-08T00:01:10.053Z,5.70
2023-02-08T00:03:41.865Z,4.90
2023-02-08T00:06:14.561Z,4.60
2023-02-08T00:08:47.028Z,4.77
2023-02-08T00:11:18.960Z,5.07
2023-02-08T00:13:50.686Z,6.93
2023-02-08T00:16:22.469Z,5.57
2023-02-08T00:18:54.228Z,5.47
2023-02-08T00:21:26.002Z,4.93
2023-02-08T00:23:57.721Z,5.60
2023-02-08T00:26:29.436Z,4.93
2023-02-08T00:29:01.411Z,4.50
2023-02-08T00:31:33.238Z,4.13
2023-02-08T00:34:05.243Z,3.53
2023-02-08T00:36:36.935Z,4.33
2023-02-08T00:39:08.661Z,5.43
2023-02-08T00:41:40.447Z,4.60
2023-02-08T00:44:12.238Z,5.03
2023-02-08T00:46:44.095Z,5.03
2023-02-08T00:49:15.926Z,5.53
2023-02-08T00:51:49.431Z,4.87
2023-02-08T00:54:21.858Z,3.90
2023-02-08T00:56:54.883Z,4.53
2023-02-08T00:59:27.717Z,5.53
2023-02-08T01:01:59.755Z,4.17
2023-02-08T01:04:31.808Z,4.60
2023-02-08T01:07:04.241Z,4.63
2023-02-08T01:09:36.210Z,3.43
2023-02-08T01:12:08.662Z,4.33
2023-02-08T01:14:40.843Z,5.70
2023-02-08T01:17:12.550Z,4.30
2023-02-08T01:19:44.286Z,5.20
2023-02-08T01:22:16.033Z,4.23
2023-02-08T01:24:47.785Z,5.17
2023-02-08T01:27:19.510Z,5.03
2023-02-08T01:29:51.502Z,5.03
2023-02-08T01:32:23.200Z,4.33
2023-02-08T01:34:54.926Z,4.40
2023-02-08T01:37:26.620Z,3.37
2023-02-08T01:39:58.345Z,4.27
2023-02-08T01:42:30.046Z,3.10
2023-02-08T01:45:20.660Z,4.07
2023-02-08T01:48:04.612Z,2.97
2023-02-08T01:50:47.590Z,3.70
2023-02-08T01:53:20.195Z,4.17
2023-02-08T01:55:56.043Z,4.20
2023-02-08T01:58:30.343Z,4.77
2023-02-08T02:01:03.454Z,4.07
2023-02-08T02:03:35.240Z,5.00
2023-02-08T02:06:15.386Z,4.50
2023-02-08T02:08:57.977Z,5.07
2023-02-08T02:11:29.855Z,7.07
2023-02-08T02:14:03.228Z,4.30
2023-02-08T02:16:34.977Z,4.97
2023-02-08T02:19:16.794Z,4.10
2023-02-08T02:22:12.908Z,3.77
2023-02-08T02:25:21.965Z,3.90
2023-02-08T02:28:20.394Z,4.40
2023-02-08T02:31:22.940Z,5.23
2023-02-08T02:34:04.946Z,4.90
2023-02-08T02:37:00.756Z,4.60
2023-02-08T02:39:41.131Z,4.53
2023-02-08T02:42:40.538Z,4.17
2023-02-08T02:45:23.700Z,4.13
2023-02-08T02:48:12.887Z,3.63
2023-02-08T02:51:03.570Z,4.63
2023-02-08T02:53:48.909Z,4.53
2023-02-08T02:56:30.566Z,3.67
2023-02-08T02:59:07.262Z,3.83
2023-02-08T03:01:40.557Z,4.63
2023-02-08T03:04:33.933Z,5.97
2023-02-08T03:07:21.319Z,4.33
2023-02-08T03:10:13.716Z,3.67
2023-02-08T03:13:11.123Z,3.93
2023-02-08T03:16:19.761Z,3.57
2023-02-08T03:19:10.039Z,4.13
2023-02-08T03:21:44.724Z,3.80
2023-02-08T03:24:40.047Z,4.00
2023-02-08T03:27:34.189Z,4.47
2023-02-08T03:30:18.224Z,3.13
2023-02-08T03:33:12.881Z,3.53
2023-02-08T03:35:57.307Z,3.60
2023-02-08T03:38:39.694Z,3.77
2023-02-08T03:41:17.790Z,4.00
2023-02-08T03:44:03.329Z,5.27
2023-02-08T03:46:39.329Z,3.97
2023-02-08T03:49:16.335Z,4.00
2023-02-08T03:51:48.976Z,3.87
2023-02-08T03:54:24.453Z,4.10
2023-02-08T03:57:20.156Z,3.60
2023-02-08T04:00:02.200Z,3.63
2023-02-08T04:02:56.470Z,4.00
2023-02-08T04:05:29.118Z,4.00
2023-02-08T04:08:00.867Z,4.47
2023-02-08T04:10:32.576Z,3.87
2023-02-08T04:13:04.518Z,4.97
2023-02-08T04:15:36.241Z,5.20
2023-02-08T04:18:07.989Z,3.47
2023-02-08T04:20:40.220Z,2.97
2023-02-08T04:23:12.089Z,3.60
2023-02-08T04:25:43.973Z,4.87
2023-02-08T04:28:15.826Z,3.07
2023-02-08T04:30:47.696Z,4.17
2023-02-08T04:33:19.437Z,4.07
2023-02-08T04:35:51.665Z,4.33
2023-02-08T04:38:23.412Z,4.80
2023-02-08T04:40:55.133Z,3.50
2023-02-08T04:43:26.955Z,3.97
2023-02-08T04:45:59.098Z,2.73
2023-02-08T04:48:30.820Z,4.50
2023-02-08T04:51:02.545Z,4.73
2023-02-08T04:53:34.852Z,4.27
2023-02-08T04:56:06.796Z,4.60
2023-02-08T04:58:38.499Z,3.77
2023-02-08T05:01:10.894Z,4.13
2023-02-08T05:03:42.626Z,4.30
2023-02-08T05:06:14.828Z,4.57
2023-02-08T05:08:46.616Z,2.43
2023-02-08T05:11:22.543Z,3.77
2023-02-08T05:13:54.386Z,4.13
2023-02-08T05:16:26.392Z,3.37
2023-02-08T05:18:58.411Z,4.00
2023-02-08T05:21:30.111Z,3.30
2023-02-08T05:24:01.842Z,4.20
2023-02-08T05:26:33.596Z,3.70
2023-02-08T05:29:05.332Z,3.80
2023-02-08T05:31:37.374Z,4.37
2023-02-08T05:34:09.093Z,4.03
2023-02-08T05:36:40.759Z,3.57
2023-02-08T05:39:12.474Z,3.17
2023-02-08T05:41:44.179Z,4.07
2023-02-08T05:44:15.884Z,3.83
2023-02-08T05:46:48.039Z,4.30
2023-02-08T05:49:19.838Z,5.33
2023-02-08T05:51:51.526Z,4.30
2023-02-08T05:54:23.268Z,4.00
2023-02-08T05:56:55.024Z,4.57
2023-02-08T05:59:26.798Z,4.67
2023-02-08T06:01:58.494Z,5.13
2023-02-08T06:04:30.463Z,4.47
2023-02-08T06:07:02.341Z,4.43
2023-02-08T06:09:34.083Z,4.63
2023-02-08T06:12:05.963Z,3.53
2023-02-08T06:14:37.692Z,4.60
2023-02-08T06:17:09.411Z,3.77
2023-02-08T06:19:41.200Z,4.73
2023-02-08T06:22:12.922Z,4.67
2023-02-08T06:24:44.676Z,3.23
2023-02-08T06:27:16.414Z,3.43
2023-02-08T06:29:48.596Z,4.17
2023-02-08T06:32:20.416Z,4.20
2023-02-08T06:34:52.379Z,3.80
2023-02-08T06:37:24.223Z,3.97
2023-02-08T06:39:55.945Z,5.33
2023-02-08T06:42:28.187Z,4.73
2023-02-08T06:45:00.042Z,4.33
2023-02-08T06:47:31.798Z,5.50
2023-02-08T06:50:03.784Z,4.73
2023-02-08T06:52:35.534Z,5.60
2023-02-08T06:55:07.455Z,4.87
2023-02-08T06:57:39.243Z,5.33
2023-02-08T07:00:11.622Z,5.87
2023-02-08T07:02:43.403Z,5.17
2023-02-08T07:05:15.165Z,8.23
2023-02-08T07:07:48.672Z,9.23
2023-02-08T07:10:20.599Z,7.63
2023-02-08T07:12:52.369Z,3.77
2023-02-08T07:15:24.296Z,5.83
2023-02-08T07:17:56.103Z,4.93
2023-02-08T07:20:27.896Z,4.43
2023-02-08T07:23:00.413Z,5.57
2023-02-08T07:25:32.193Z,4.10
2023-02-08T07:28:03.990Z,3.83
2023-02-08T07:30:36.378Z,3.57
2023-02-08T07:33:08.102Z,4.43
2023-02-08T07:35:39.839Z,3.03
2023-02-08T07:38:11.606Z,4.50
2023-02-08T07:40:43.426Z,4.33
2023-02-08T07:43:15.258Z,4.43
2023-02-08T07:45:57.205Z,4.57
2023-02-08T07:48:28.950Z,5.97
2023-02-08T07:51:00.829Z,3.00
2023-02-08T07:53:33.229Z,5.40
2023-02-08T07:56:05.849Z,4.77
2023-02-08T07:58:37.734Z,3.77
2023-02-08T08:01:21.482Z,4.73
2023-02-08T08:03:53.991Z,4.13
2023-02-08T08:06:26.224Z,4.30
2023-02-08T08:08:58.035Z,3.77
2023-02-08T08:11:29.723Z,4.77
2023-02-08T08:14:01.409Z,5.03
2023-02-08T08:16:33.267Z,6.07
2023-02-08T08:19:05.080Z,5.37
2023-02-08T08:21:36.946Z,3.97
2023-02-08T08:24:08.749Z,4.97
2023-02-08T08:26:40.520Z,4.67
2023-02-08T08:29:13.410Z,5.37
2023-02-08T08:31:45.197Z,4.77
2023-02-08T08:34:16.981Z,5.27
2023-02-08T08:36:48.721Z,3.97
2023-02-08T08:39:20.430Z,5.80
2023-02-08T08:41:52.151Z,5.43
2023-02-08T08:44:24.016Z,4.27
2023-02-08T08:46:56.853Z,6.27
2023-02-08T08:49:29.405Z,5.97
2023-02-08T08:52:01.299Z,6.67
2023-02-08T08:54:33.483Z,3.63
2023-02-08T08:57:05.505Z,5.23
2023-02-08T08:59:37.215Z,5.93
2023-02-08T09:02:13.021Z,5.53
2023-02-08T09:04:44.762Z,6.70
2023-02-08T09:07:16.504Z,6.77
2023-02-08T09:09:48.253Z,6.23
2023-02-08T09:12:19.984Z,6.67
2023-02-08T09:14:51.658Z,5.23
2023-02-08T09:17:23.572Z,5.77
2023-02-08T09:19:55.352Z,6.67
2023-02-08T09:22:27.062Z,6.23
2023-02-08T09:24:59.792Z,6.17
2023-02-08T09:27:31.557Z,6.43
2023-02-08T09:30:03.957Z,6.47
2023-02-08T09:32:36.681Z,5.67
2023-02-08T09:35:08.915Z,6.43
2023-02-08T09:37:40.669Z,6.63
2023-02-08T09:40:27.031Z,5.90
2023-02-08T09:43:10.656Z,6.23
2023-02-08T09:45:59.967Z,7.13
2023-02-08T09:48:36.426Z,6.03
2023-02-08T09:51:31.866Z,5.70
2023-02-08T09:54:14.983Z,4.87
2023-02-08T09:56:48.769Z,5.33
2023-02-08T09:59:26.849Z,5.37
2023-02-08T10:02:20.276Z,5.43
2023-02-08T10:04:57.366Z,5.13
2023-02-08T10:07:30.524Z,6.53
2023-02-08T10:10:05.298Z,5.17
2023-02-08T10:13:02.679Z,5.73
2023-02-08T10:16:05.006Z,7.03
2023-02-08T10:18:57.056Z,5.53
2023-02-08T10:21:38.414Z,5.57
2023-02-08T10:24:26.273Z,6.63
2023-02-08T10:27:16.081Z,5.20
2023-02-08T10:29:58.154Z,6.30
2023-02-08T10:32:42.684Z,6.10
2023-02-08T10:35:27.967Z,6.33
2023-02-08T10:37:59.899Z,6.47
2023-02-08T10:40:39.536Z,6.10
2023-02-08T10:43:38.074Z,6.30
2023-02-08T10:46:31.677Z,6.07
2023-02-08T10:49:19.162Z,6.27
2023-02-08T10:51:51.033Z,5.37
2023-02-08T10:54:22.830Z,7.50
2023-02-08T10:57:02.990Z,7.10
2023-02-08T10:59:49.251Z,6.63
2023-02-08T11:02:26.629Z,6.23
2023-02-08T11:05:00.010Z,6.43
2023-02-08T11:07:35.289Z,6.10
2023-02-08T11:10:18.504Z,7.20
2023-02-08T11:13:00.037Z,6.97
2023-02-08T11:15:45.718Z,5.87
2023-02-08T11:18:27.636Z,6.67
2023-02-08T11:21:05.432Z,5.00
2023-02-08T11:23:42.357Z,6.60
2023-02-08T11:26:23.839Z,5.50
2023-02-08T11:29:23.594Z,7.20
2023-02-08T11:31:55.358Z,6.27
2023-02-08T11:34:40.082Z,5.70
2023-02-08T11:37:26.519Z,7.00
2023-02-08T11:40:00.213Z,6.60
2023-02-08T11:42:37.864Z,7.70
2023-02-08T11:45:21.177Z,6.37
2023-02-08T11:47:53.112Z,6.20
2023-02-08T11:50:32.516Z,7.27
2023-02-08T11:53:23.161Z,6.73
2023-02-08T11:56:22.628Z,6.03
2023-02-08T11:59:06.704Z,5.40
2023-02-08T12:01:40.665Z,5.73
2023-02-08T12:04:14.886Z,6.67
2023-02-08T12:07:04.158Z,5.60
2023-02-08T12:09:47.932Z,5.27
2023-02-08T12:12:47.461Z,4.63
2023-02-08T12:15:48.117Z,4.77
2023-02-08T12:18:25.928Z,5.70
2023-02-08T12:21:17.453Z,5.17
2023-02-08T12:24:27.392Z,5.10
2023-02-08T12:27:02.449Z,6.10
2023-02-08T12:29:49.289Z,5.67
2023-02-08T12:32:42.711Z,5.10
2023-02-08T12:35:39.031Z,5.40
2023-02-08T12:38:47.056Z,4.60
2023-02-08T12:41:23.207Z,5.27
2023-02-08T12:44:02.394Z,5.40
2023-02-08T12:46:50.077Z,5.50
2023-02-08T12:49:42.678Z,5.70
2023-02-08T12:52:33.647Z,4.80
2023-02-08T12:55:33.705Z,5.83
2023-02-08T12:58:30.114Z,6.40
2023-02-08T13:01:10.682Z,5.33
2023-02-08T13:04:27.981Z,5.33
2023-02-08T13:07:04.129Z,6.00
2023-02-08T13:09:40.292Z,5.70
2023-02-08T13:12:32.433Z,5.33
2023-02-08T13:15:28.387Z,5.57
2023-02-08T13:18:10.818Z,5.53
2023-02-08T13:20:55.792Z,5.60
2023-02-08T13:23:27.497Z,4.90
2023-02-08T13:26:03.120Z,5.63
2023-02-08T13:28:34.987Z,3.90
2023-02-08T13:31:13.298Z,5.87
2023-02-08T13:34:00.815Z,5.77
2023-02-08T13:36:36.980Z,5.87
2023-02-08T13:39:40.795Z,6.30
2023-02-08T13:42:22.551Z,5.70
2023-02-08T13:44:55.881Z,5.83
2023-02-08T13:47:31.152Z,4.63
2023-02-08T13:50:09.574Z,5.03
2023-02-08T13:52:48.551Z,4.83
2023-02-08T13:55:33.273Z,5.40
2023-02-08T13:58:27.810Z,5.37
2023-02-08T14:01:01.277Z,4.80
2023-02-08T14:03:35.044Z,4.50
2023-02-08T14:06:26.226Z,4.70
2023-02-08T14:09:37.747Z,3.87
2023-02-08T14:12:52.774Z,4.03
2023-02-08T14:15:30.626Z,4.00
2023-02-08T14:18:03.604Z,4.20
2023-02-08T14:20:40.289Z,5.43
2023-02-08T14:23:24.675Z,3.90
2023-02-08T14:25:58.234Z,3.87
2023-02-08T14:28:40.371Z,3.80
2023-02-08T14:31:14.089Z,4.00
2023-02-08T14:33:56.946Z,4.17
2023-02-08T14:36:32.069Z,3.70
2023-02-08T14:39:23.278Z,4.07
2023-02-08T14:42:00.993Z,4.47
2023-02-08T14:44:38.754Z,4.77
2023-02-08T14:47:24.890Z,3.77
2023-02-08T14:50:16.021Z,3.23
2023-02-08T14:52:59.019Z,3.80
2023-02-08T14:55:46.125Z,3.07
2023-02-08T14:58:37.110Z,3.40
2023-02-08T15:01:22.026Z,3.50
2023-02-08T15:04:01.697Z,4.07
2023-02-08T15:06:53.621Z,3.77
2023-02-08T15:09:28.933Z,4.00
2023-02-08T15:12:12.610Z,3.73
2023-02-08T15:14:44.381Z,4.30
2023-02-08T15:17:33.220Z,4.03
2023-02-08T15:20:17.467Z,3.07
2023-02-08T15:22:58.011Z,3.33
2023-02-08T15:25:35.603Z,4.07
2023-02-08T15:28:22.285Z,4.10
2023-02-08T15:31:00.609Z,3.20
2023-02-08T15:33:32.886Z,4.13
2023-02-08T15:36:29.956Z,3.73
2023-02-08T15:39:23.457Z,3.27
2023-02-08T15:41:58.964Z,3.30
2023-02-08T15:44:34.969Z,3.37
2023-02-08T15:47:17.983Z,4.90
2023-02-08T15:49:53.405Z,5.80
2023-02-08T15:52:31.662Z,5.73
2023-02-08T15:55:07.273Z,5.60
2023-02-08T15:57:43.920Z,6.50
2023-02-08T16:00:22.179Z,6.20
2023-02-08T16:03:00.148Z,6.80
2023-02-08T16:05:33.398Z,6.43
2023-02-08T16:08:05.514Z,6.70
2023-02-08T16:10:46.744Z,7.40
2023-02-08T16:13:23.593Z,7.13
2023-02-08T16:16:08.457Z,6.67
2023-02-08T16:18:50.238Z,6.87
2023-02-08T16:21:24.955Z,7.20
2023-02-08T16:24:21.606Z,6.67
2023-02-08T16:27:06.695Z,7.40
2023-02-08T16:29:39.657Z,6.33
2023-02-08T16:32:28.556Z,8.40
2023-02-08T16:35:10.859Z,8.20
2023-02-08T16:37:42.596Z,7.07
2023-02-08T16:41:14.627Z,7.70
2023-02-08T16:43:47.824Z,6.03
2023-02-08T16:46:22.462Z,6.83
2023-02-08T16:48:55.725Z,6.20
2023-02-08T16:51:35.686Z,7.13
2023-02-08T16:54:07.804Z,6.63
2023-02-08T16:56:41.277Z,5.77
2023-02-08T16:59:13.820Z,6.87
2023-02-08T17:01:48.416Z,8.73
2023-02-08T17:04:20.149Z,9.43
2023-02-08T17:06:52.907Z,7.37
2023-02-08T17:09:24.615Z,8.57
2023-02-08T17:11:56.367Z,7.53
2023-02-08T17:14:28.084Z,7.10
2023-02-08T17:16:59.801Z,8.20
2023-02-08T17:19:31.523Z,6.90
2023-02-08T17:22:03.314Z,7.77
2023-02-08T17:24:35.029Z,7.97
2023-02-08T17:27:06.852Z,6.80
2023-02-08T17:29:38.583Z,7.00
2023-02-08T17:32:10.308Z,7.40
2023-02-08T17:34:42.089Z,7.17
2023-02-08T17:37:13.976Z,7.87
2023-02-08T17:39:45.687Z,6.83
2023-02-08T17:42:17.878Z,6.83
2023-02-08T17:44:49.776Z,6.80
2023-02-08T17:47:21.575Z,7.67
2023-02-08T17:49:53.278Z,6.97
2023-02-08T17:52:25.388Z,8.00
2023-02-08T17:54:57.234Z,7.43
2023-02-08T17:57:34.652Z,8.20
2023-02-08T18:00:09.586Z,7.90
2023-02-08T18:02:46.805Z,7.07
2023-02-08T18:05:24.313Z,8.03
2023-02-08T18:07:57.216Z,6.57
2023-02-08T18:10:28.973Z,6.37
2023-02-08T18:13:00.679Z,7.20
2023-02-08T18:15:34.005Z,8.30
2023-02-08T18:18:05.766Z,7.27
2023-02-08T18:20:37.720Z,7.47
2023-02-08T18:23:09.433Z,7.47
2023-02-08T18:25:41.836Z,7.83
2023-02-08T18:28:15.157Z,8.43
2023-02-08T18:30:47.053Z,8.27
2023-02-08T18:33:19.236Z,6.20
2023-02-08T18:35:50.999Z,8.30
2023-02-08T18:38:22.796Z,9.40
2023-02-08T18:40:54.869Z,6.60
2023-02-08T18:43:27.624Z,8.10
2023-02-08T18:46:01.391Z,6.60
2023-02-08T18:48:33.487Z,6.53
2023-02-08T18:51:06.929Z,8.13
2023-02-08T18:53:40.681Z,7.03
2023-02-08T18:56:13.129Z,7.73
2023-02-08T18:58:44.808Z,6.93
2023-02-08T19:01:19.441Z,8.10
2023-02-08T19:03:54.592Z,7.50
2023-02-08T19:06:28.513Z,6.23
2023-02-08T19:09:04.430Z,6.90
2023-02-08T19:11:40.179Z,6.20
2023-02-08T19:14:14.738Z,6.77
2023-02-08T19:16:46.500Z,6.47
2023-02-08T19:19:18.290Z,6.63
2023-02-08T19:21:50.077Z,7.43
2023-02-08T19:24:22.128Z,7.13
2023-02-08T19:26:53.875Z,6.30
2023-02-08T19:29:25.608Z,7.20
2023-02-08T19:31:58.456Z,5.17
2023-02-08T19:34:30.301Z,6.73
2023-02-08T19:37:02.038Z,6.37
2023-02-08T19:39:33.845Z,6.13
2023-02-08T19:42:05.594Z,7.07
2023-02-08T19:44:37.616Z,8.13
2023-02-08T19:47:09.428Z,6.47
2023-02-08T19:49:41.226Z,6.07
2023-02-08T19:52:13.213Z,6.57
2023-02-08T19:54:44.963Z,8.03
2023-02-08T19:57:16.778Z,6.67
2023-02-08T19:59:48.574Z,5.17
2023-02-08T20:02:22.103Z,6.03
2023-02-08T20:04:53.932Z,7.00
2023-02-08T20:07:26.322Z,7.80
2023-02-08T20:09:58.068Z,7.50
2023-02-08T20:12:29.836Z,8.10
2023-02-08T20:15:01.788Z,8.57
2023-02-08T20:17:33.522Z,8.23
2023-02-08T20:20:05.878Z,7.80
2023-02-08T20:22:37.721Z,8.27
2023-02-08T20:25:09.454Z,7.50
2023-02-08T20:27:41.246Z,6.47
2023-02-08T20:30:13.555Z,6.47
2023-02-08T20:32:46.971Z,6.47
2023-02-08T20:35:19.035Z,7.87
2023-02-08T20:37:50.741Z,6.33
2023-02-08T20:40:22.571Z,6.13
2023-02-08T20:42:54.342Z,7.13
2023-02-08T20:45:26.220Z,5.83
2023-02-08T20:47:57.977Z,6.67
2023-02-08T20:50:30.859Z,7.63
2023-02-08T20:53:02.597Z,6.40
2023-02-08T20:55:34.359Z,6.03
2023-02-08T20:58:06.147Z,6.30
2023-02-08T21:00:42.674Z,7.00
2023-02-08T21:03:15.248Z,6.60
2023-02-08T21:05:47.014Z,7.93
2023-02-08T21:08:18.763Z,6.07
2023-02-08T21:10:50.498Z,7.17
2023-02-08T21:13:22.289Z,8.67
2023-02-08T21:15:54.120Z,7.60
2023-02-08T21:18:25.895Z,6.23
2023-02-08T21:20:58.162Z,6.80
2023-02-08T21:23:30.140Z,6.13
2023-02-08T21:26:03.616Z,6.90
2023-02-08T21:28:35.881Z,6.63
2023-02-08T21:31:12.024Z,6.50
2023-02-08T21:33:44.615Z,7.23
2023-02-08T21:36:19.643Z,6.60
2023-02-08T21:38:51.562Z,5.53
2023-02-08T21:41:26.488Z,6.90
2023-02-08T21:43:59.799Z,6.73
2023-02-08T21:46:32.281Z,6.00
2023-02-08T21:49:22.911Z,7.13
2023-02-08T21:52:13.530Z,6.47
2023-02-08T21:54:46.328Z,6.10
2023-02-08T21:57:20.442Z,5.70
2023-02-08T21:59:54.539Z,6.37
2023-02-08T22:02:28.827Z,5.80
2023-02-08T22:05:22.226Z,7.73
2023-02-08T22:07:56.280Z,6.30
2023-02-08T22:10:30.014Z,5.97
2023-02-08T22:13:01.765Z,6.53
2023-02-08T22:15:34.952Z,6.77
2023-02-08T22:18:06.741Z,7.03
2023-02-08T22:20:38.533Z,7.17
2023-02-08T22:23:10.256Z,6.67
2023-02-08T22:25:41.964Z,5.47
2023-02-08T22:28:13.768Z,5.50
2023-02-08T22:30:48.461Z,7.03
2023-02-08T22:33:20.280Z,7.60
2023-02-08T22:35:52.039Z,8.30
2023-02-08T22:38:24.164Z,7.47
2023-02-08T22:40:55.867Z,8.70
2023-02-08T22:43:29.111Z,7.20
2023-02-08T22:46:01.565Z,6.90
2023-02-08T22:48:34.004Z,7.80
2023-02-08T22:51:13.665Z,6.30
2023-02-08T22:53:45.593Z,5.87
2023-02-08T22:56:18.137Z,6.17
2023-02-08T22:58:49.866Z,6.87
2023-02-08T23:01:21.710Z,5.97
2023-02-08T23:03:53.449Z,7.47
2023-02-08T23:06:25.144Z,5.40
2023-02-08T23:08:57.942Z,5.13
2023-02-08T23:11:29.753Z,5.83
2023-02-08T23:14:01.465Z,6.50
2023-02-08T23:16:33.275Z,4.47
2023-02-08T23:19:05.565Z,5.23
2023-02-08T23:21:39.551Z,5.20
2023-02-08T23:24:11.706Z,5.80
2023-02-08T23:26:43.444Z,4.30
2023-02-08T23:29:15.143Z,4.30
2023-02-08T23:31:46.940Z,2.93
2023-02-08T23:34:18.796Z,4.40
2023-02-08T23:36:50.673Z,4.57
2023-02-08T23:39:22.424Z,4.07
2023-02-08T23:41:55.997Z,3.63
2023-02-08T23:44:27.785Z,3.97
2023-02-08T23:46:59.580Z,3.17
2023-02-08T23:49:31.334Z,3.00
2023-02-08T23:52:03.043Z,2.83
2023-02-08T23:54:35.874Z,2.17
2023-02-08T23:57:07.684Z,3.73
2023-02-08T23:59:40.067Z,4.33
